sensor_id;sensor_type;location;lat;lon;timestamp;P1;durP1;ratioP1;P2;durP2;ratioP2
25419;SDS011;13354;48.174;11.566;2022-12-07T00:01:11;14.20;;;11.45;;
25419;SDS011;13354;48.174;11.566;2022-12-07T00:03:39;14.35;;;11.45;;
25419;SDS011;13354;48.174;11.566;2022-12-07T00:06:07;14.32;;;11.48;;
25419;SDS011;13354;48.174;11.566;2022-12-07T00:08:34;15.27;;;11.80;;
25419;SDS011;13354;48.174;11.566;2022-12-07T00:11:04;12.98;;;10.43;;
25419;SDS011;13354;48.174;11.566;2022-12-07T00:13:31;16.35;;;12.02;;
25419;SDS011;13354;48.174;11.566;2022-12-07T00:16:04;15.10;;;11.88;;
25419;SDS011;13354;48.174;11.566;2022-12-07T00:18:31;11.48;;;9.43;;
25419;SDS011;13354;48.174;11.566;2022-12-07T00:21:00;16.35;;;10.77;;
25419;SDS011;13354;48.174;11.566;2022-12-07T00:23:30;14.27;;;10.90;;
25419;SDS011;13354;48.174;11.566;2022-12-07T00:26:02;14.18;;;11.02;;
25419;SDS011;13354;48.174;11.566;2022-12-07T00:28:29;13.02;;;10.65;;
25419;SDS011;13354;48.174;11.566;2022-12-07T00:30:59;13.40;;;10.85;;
25419;SDS011;13354;48.174;11.566;2022-12-07T00:33:26;13.43;;;11.55;;
25419;SDS011;13354;48.174;11.566;2022-12-07T00:35:56;13.55;;;11.00;;
25419;SDS011;13354;48.174;11.566;2022-12-07T00:38:23;14.68;;;11.20;;
25419;SDS011;13354;48.174;11.566;2022-12-07T00:40:58;13.98;;;10.98;;
25419;SDS011;13354;48.174;11.566;2022-12-07T00:43:26;13.13;;;10.77;;
25419;SDS011;13354;48.174;11.566;2022-12-07T00:45:52;12.73;;;10.88;;
25419;SDS011;13354;48.174;11.566;2022-12-07T00:48:17;17.30;;;10.55;;
25419;SDS011;13354;48.174;11.566;2022-12-07T00:50:43;12.10;;;9.98;;
25419;SDS011;13354;48.174;11.566;2022-12-07T00:53:08;11.50;;;9.98;;
25419;SDS011;13354;48.174;11.566;2022-12-07T00:55:36;12.07;;;10.00;;
25419;SDS011;13354;48.174;11.566;2022-12-07T00:58:03;11.10;;;9.43;;
25419;SDS011;13354;48.174;11.566;2022-12-07T01:00:28;11.85;;;9.60;;
25419;SDS011;13354;48.174;11.566;2022-12-07T01:02:54;12.60;;;9.85;;
25419;SDS011;13354;48.174;11.566;2022-12-07T01:05:20;12.30;;;10.50;;
25419;SDS011;13354;48.174;11.566;2022-12-07T01:07:45;12.82;;;10.45;;
25419;SDS011;13354;48.174;11.566;2022-12-07T01:10:11;12.73;;;10.15;;
25419;SDS011;13354;48.174;11.566;2022-12-07T01:12:38;12.07;;;10.00;;
25419;SDS011;13354;48.174;11.566;2022-12-07T01:15:04;11.70;;;10.00;;
25419;SDS011;13354;48.174;11.566;2022-12-07T01:17:30;13.23;;;10.07;;
25419;SDS011;13354;48.174;11.566;2022-12-07T01:19:55;13.13;;;10.55;;
25419;SDS011;13354;48.174;11.566;2022-12-07T01:22:20;11.05;;;9.63;;
25419;SDS011;13354;48.174;11.566;2022-12-07T01:24:45;10.98;;;9.55;;
25419;SDS011;13354;48.174;11.566;2022-12-07T01:27:11;12.85;;;10.63;;
25419;SDS011;13354;48.174;11.566;2022-12-07T01:29:37;13.05;;;10.80;;
25419;SDS011;13354;48.174;11.566;2022-12-07T01:32:03;11.30;;;9.68;;
25419;SDS011;13354;48.174;11.566;2022-12-07T01:34:28;11.77;;;9.77;;
25419;SDS011;13354;48.174;11.566;2022-12-07T01:36:53;13.30;;;10.88;;
25419;SDS011;13354;48.174;11.566;2022-12-07T01:39:19;13.57;;;10.60;;
25419;SDS011;13354;48.174;11.566;2022-12-07T01:41:44;13.60;;;10.60;;
25419;SDS011;13354;48.174;11.566;2022-12-07T01:44:22;14.25;;;10.82;;
25419;SDS011;13354;48.174;11.566;2022-12-07T01:46:52;12.45;;;10.30;;
25419;SDS011;13354;48.174;11.566;2022-12-07T01:49:31;13.48;;;10.80;;
25419;SDS011;13354;48.174;11.566;2022-12-07T01:52:04;11.95;;;10.10;;
25419;SDS011;13354;48.174;11.566;2022-12-07T01:54:31;14.07;;;10.95;;
25419;SDS011;13354;48.174;11.566;2022-12-07T01:56:57;13.15;;;10.38;;
25419;SDS011;13354;48.174;11.566;2022-12-07T01:59:24;12.73;;;10.27;;
25419;SDS011;13354;48.174;11.566;2022-12-07T02:01:51;12.88;;;10.27;;
25419;SDS011;13354;48.174;11.566;2022-12-07T02:04:17;14.98;;;10.68;;
25419;SDS011;13354;48.174;11.566;2022-12-07T02:06:43;12.85;;;10.82;;
25419;SDS011;13354;48.174;11.566;2022-12-07T02:09:10;14.50;;;10.77;;
25419;SDS011;13354;48.174;11.566;2022-12-07T02:11:37;12.38;;;10.30;;
25419;SDS011;13354;48.174;11.566;2022-12-07T02:14:02;13.02;;;10.50;;
25419;SDS011;13354;48.174;11.566;2022-12-07T02:16:31;13.60;;;10.52;;
25419;SDS011;13354;48.174;11.566;2022-12-07T02:21:52;14.07;;;10.55;;
25419;SDS011;13354;48.174;11.566;2022-12-07T02:27:28;12.73;;;10.60;;
25419;SDS011;13354;48.174;11.566;2022-12-07T02:30:12;13.85;;;10.68;;
25419;SDS011;13354;48.174;11.566;2022-12-07T02:32:44;14.55;;;11.27;;
25419;SDS011;13354;48.174;11.566;2022-12-07T02:35:24;13.10;;;10.63;;
25419;SDS011;13354;48.174;11.566;2022-12-07T02:38:04;11.98;;;9.88;;
25419;SDS011;13354;48.174;11.566;2022-12-07T02:40:54;15.48;;;11.60;;
25419;SDS011;13354;48.174;11.566;2022-12-07T02:43:25;14.23;;;11.48;;
25419;SDS011;13354;48.174;11.566;2022-12-07T02:45:54;13.43;;;10.20;;
25419;SDS011;13354;48.174;11.566;2022-12-07T02:48:23;12.85;;;11.25;;
25419;SDS011;13354;48.174;11.566;2022-12-07T02:50:51;13.00;;;11.23;;
25419;SDS011;13354;48.174;11.566;2022-12-07T03:04:19;13.27;;;10.60;;
25419;SDS011;13354;48.174;11.566;2022-12-07T03:06:52;13.00;;;11.15;;
25419;SDS011;13354;48.174;11.566;2022-12-07T03:09:34;10.32;;;8.88;;
25419;SDS011;13354;48.174;11.566;2022-12-07T03:12:18;12.95;;;10.93;;
25419;SDS011;13354;48.174;11.566;2022-12-07T03:14:55;14.10;;;11.32;;
25419;SDS011;13354;48.174;11.566;2022-12-07T03:17:27;12.77;;;11.10;;
25419;SDS011;13354;48.174;11.566;2022-12-07T03:19:57;13.85;;;11.30;;
25419;SDS011;13354;48.174;11.566;2022-12-07T03:22:25;12.60;;;11.05;;
25419;SDS011;13354;48.174;11.566;2022-12-07T03:24:59;13.98;;;11.32;;
25419;SDS011;13354;48.174;11.566;2022-12-07T03:27:31;11.87;;;9.10;;
25419;SDS011;13354;48.174;11.566;2022-12-07T03:30:00;13.60;;;11.48;;
25419;SDS011;13354;48.174;11.566;2022-12-07T03:32:30;14.23;;;11.48;;
25419;SDS011;13354;48.174;11.566;2022-12-07T03:40:43;12.60;;;11.05;;
25419;SDS011;13354;48.174;11.566;2022-12-07T03:43:14;11.75;;;9.75;;
25419;SDS011;13354;48.174;11.566;2022-12-07T03:45:42;15.35;;;11.73;;
25419;SDS011;13354;48.174;11.566;2022-12-07T03:51:04;15.55;;;12.63;;
25419;SDS011;13354;48.174;11.566;2022-12-07T03:53:44;13.32;;;11.30;;
25419;SDS011;13354;48.174;11.566;2022-12-07T03:56:15;14.77;;;11.93;;
25419;SDS011;13354;48.174;11.566;2022-12-07T03:58:42;16.77;;;12.90;;
25419;SDS011;13354;48.174;11.566;2022-12-07T04:01:08;15.63;;;12.65;;
25419;SDS011;13354;48.174;11.566;2022-12-07T04:03:33;17.55;;;12.70;;
25419;SDS011;13354;48.174;11.566;2022-12-07T04:05:59;15.82;;;12.65;;
25419;SDS011;13354;48.174;11.566;2022-12-07T04:08:24;15.27;;;12.07;;
25419;SDS011;13354;48.174;11.566;2022-12-07T04:10:50;15.85;;;12.73;;
25419;SDS011;13354;48.174;11.566;2022-12-07T04:13:15;16.75;;;12.85;;
25419;SDS011;13354;48.174;11.566;2022-12-07T04:15:40;17.58;;;13.02;;
25419;SDS011;13354;48.174;11.566;2022-12-07T04:18:06;17.15;;;12.93;;
25419;SDS011;13354;48.174;11.566;2022-12-07T04:20:31;17.25;;;13.75;;
25419;SDS011;13354;48.174;11.566;2022-12-07T04:22:56;17.05;;;13.60;;
25419;SDS011;13354;48.174;11.566;2022-12-07T04:25:21;15.50;;;13.13;;
25419;SDS011;13354;48.174;11.566;2022-12-07T04:27:47;17.02;;;12.38;;
25419;SDS011;13354;48.174;11.566;2022-12-07T04:30:12;16.30;;;13.25;;
25419;SDS011;13354;48.174;11.566;2022-12-07T04:32:37;17.42;;;13.45;;
25419;SDS011;13354;48.174;11.566;2022-12-07T04:35:03;16.33;;;13.70;;
25419;SDS011;13354;48.174;11.566;2022-12-07T04:37:29;17.30;;;13.25;;
25419;SDS011;13354;48.174;11.566;2022-12-07T04:39:54;16.75;;;12.25;;
25419;SDS011;13354;48.174;11.566;2022-12-07T04:42:19;16.63;;;13.15;;
25419;SDS011;13354;48.174;11.566;2022-12-07T04:44:45;18.23;;;12.60;;
25419;SDS011;13354;48.174;11.566;2022-12-07T04:47:10;14.35;;;11.95;;
25419;SDS011;13354;48.174;11.566;2022-12-07T04:49:35;18.13;;;12.10;;
25419;SDS011;13354;48.174;11.566;2022-12-07T04:52:00;17.02;;;13.00;;
25419;SDS011;13354;48.174;11.566;2022-12-07T04:54:26;15.15;;;12.77;;
25419;SDS011;13354;48.174;11.566;2022-12-07T04:56:51;13.93;;;12.02;;
25419;SDS011;13354;48.174;11.566;2022-12-07T04:59:16;16.30;;;12.75;;
25419;SDS011;13354;48.174;11.566;2022-12-07T05:01:42;15.02;;;12.35;;
25419;SDS011;13354;48.174;11.566;2022-12-07T05:04:07;15.05;;;11.88;;
25419;SDS011;13354;48.174;11.566;2022-12-07T05:06:33;15.45;;;12.25;;
25419;SDS011;13354;48.174;11.566;2022-12-07T05:08:59;14.73;;;11.85;;
25419;SDS011;13354;48.174;11.566;2022-12-07T05:11:25;15.98;;;12.57;;
25419;SDS011;13354;48.174;11.566;2022-12-07T05:16:38;13.60;;;10.83;;
25419;SDS011;13354;48.174;11.566;2022-12-07T05:19:04;14.48;;;12.40;;
25419;SDS011;13354;48.174;11.566;2022-12-07T05:21:30;15.55;;;11.30;;
25419;SDS011;13354;48.174;11.566;2022-12-07T05:23:55;15.85;;;11.98;;
25419;SDS011;13354;48.174;11.566;2022-12-07T05:26:21;13.85;;;11.98;;
25419;SDS011;13354;48.174;11.566;2022-12-07T05:28:49;14.68;;;12.10;;
25419;SDS011;13354;48.174;11.566;2022-12-07T05:31:16;15.02;;;12.20;;
25419;SDS011;13354;48.174;11.566;2022-12-07T05:33:41;15.27;;;12.18;;
25419;SDS011;13354;48.174;11.566;2022-12-07T05:36:07;14.30;;;12.30;;
25419;SDS011;13354;48.174;11.566;2022-12-07T05:38:32;15.05;;;12.27;;
25419;SDS011;13354;48.174;11.566;2022-12-07T05:41:01;13.65;;;11.48;;
25419;SDS011;13354;48.174;11.566;2022-12-07T05:43:27;15.25;;;12.48;;
25419;SDS011;13354;48.174;11.566;2022-12-07T05:45:53;18.08;;;12.57;;
25419;SDS011;13354;48.174;11.566;2022-12-07T05:48:18;16.55;;;13.40;;
25419;SDS011;13354;48.174;11.566;2022-12-07T05:50:43;16.25;;;13.02;;
25419;SDS011;13354;48.174;11.566;2022-12-07T05:53:08;15.30;;;12.93;;
25419;SDS011;13354;48.174;11.566;2022-12-07T05:55:34;16.25;;;13.95;;
25419;SDS011;13354;48.174;11.566;2022-12-07T05:57:59;20.08;;;12.65;;
25419;SDS011;13354;48.174;11.566;2022-12-07T06:00:43;14.38;;;11.50;;
25419;SDS011;13354;48.174;11.566;2022-12-07T06:03:08;16.02;;;13.18;;
25419;SDS011;13354;48.174;11.566;2022-12-07T06:05:33;16.42;;;13.85;;
25419;SDS011;13354;48.174;11.566;2022-12-07T06:07:59;17.20;;;13.52;;
25419;SDS011;13354;48.174;11.566;2022-12-07T06:10:24;17.38;;;13.88;;
25419;SDS011;13354;48.174;11.566;2022-12-07T06:12:49;16.33;;;13.43;;
25419;SDS011;13354;48.174;11.566;2022-12-07T06:15:14;16.00;;;12.95;;
25419;SDS011;13354;48.174;11.566;2022-12-07T06:17:40;17.48;;;13.98;;
25419;SDS011;13354;48.174;11.566;2022-12-07T06:20:06;16.52;;;13.68;;
25419;SDS011;13354;48.174;11.566;2022-12-07T06:22:31;16.00;;;13.20;;
25419;SDS011;13354;48.174;11.566;2022-12-07T06:24:57;16.23;;;13.50;;
25419;SDS011;13354;48.174;11.566;2022-12-07T06:27:22;16.38;;;12.88;;
25419;SDS011;13354;48.174;11.566;2022-12-07T06:29:47;15.38;;;12.88;;
25419;SDS011;13354;48.174;11.566;2022-12-07T06:32:13;15.35;;;13.20;;
25419;SDS011;13354;48.174;11.566;2022-12-07T06:34:38;17.67;;;13.23;;
25419;SDS011;13354;48.174;11.566;2022-12-07T06:37:03;17.38;;;13.63;;
25419;SDS011;13354;48.174;11.566;2022-12-07T06:39:29;15.55;;;12.68;;
25419;SDS011;13354;48.174;11.566;2022-12-07T06:41:55;16.05;;;13.15;;
25419;SDS011;13354;48.174;11.566;2022-12-07T06:44:21;15.05;;;12.75;;
25419;SDS011;13354;48.174;11.566;2022-12-07T06:46:47;17.33;;;13.25;;
25419;SDS011;13354;48.174;11.566;2022-12-07T06:49:13;16.33;;;12.90;;
25419;SDS011;13354;48.174;11.566;2022-12-07T06:51:38;17.48;;;14.50;;
25419;SDS011;13354;48.174;11.566;2022-12-07T06:54:06;17.50;;;14.35;;
25419;SDS011;13354;48.174;11.566;2022-12-07T06:56:33;16.23;;;13.38;;
25419;SDS011;13354;48.174;11.566;2022-12-07T06:58:58;18.67;;;14.10;;
25419;SDS011;13354;48.174;11.566;2022-12-07T07:01:23;16.98;;;13.65;;
25419;SDS011;13354;48.174;11.566;2022-12-07T07:03:49;17.23;;;13.98;;
25419;SDS011;13354;48.174;11.566;2022-12-07T07:06:14;17.80;;;13.70;;
25419;SDS011;13354;48.174;11.566;2022-12-07T07:08:40;16.25;;;13.55;;
25419;SDS011;13354;48.174;11.566;2022-12-07T07:11:06;17.17;;;14.00;;
25419;SDS011;13354;48.174;11.566;2022-12-07T07:13:32;17.00;;;14.07;;
25419;SDS011;13354;48.174;11.566;2022-12-07T07:15:58;17.92;;;13.52;;
25419;SDS011;13354;48.174;11.566;2022-12-07T07:18:23;15.55;;;13.30;;
25419;SDS011;13354;48.174;11.566;2022-12-07T07:20:50;15.73;;;12.85;;
25419;SDS011;13354;48.174;11.566;2022-12-07T07:23:16;14.68;;;12.98;;
25419;SDS011;13354;48.174;11.566;2022-12-07T07:25:41;14.27;;;12.55;;
25419;SDS011;13354;48.174;11.566;2022-12-07T07:28:06;16.73;;;13.43;;
25419;SDS011;13354;48.174;11.566;2022-12-07T07:30:32;14.63;;;12.18;;
25419;SDS011;13354;48.174;11.566;2022-12-07T07:32:58;16.60;;;13.95;;
25419;SDS011;13354;48.174;11.566;2022-12-07T07:35:24;16.23;;;13.52;;
25419;SDS011;13354;48.174;11.566;2022-12-07T07:37:50;16.48;;;13.27;;
25419;SDS011;13354;48.174;11.566;2022-12-07T07:40:15;15.85;;;13.45;;
25419;SDS011;13354;48.174;11.566;2022-12-07T07:42:40;18.10;;;13.52;;
25419;SDS011;13354;48.174;11.566;2022-12-07T07:45:06;16.25;;;13.95;;
25419;SDS011;13354;48.174;11.566;2022-12-07T07:47:31;17.17;;;13.25;;
25419;SDS011;13354;48.174;11.566;2022-12-07T07:49:57;17.60;;;13.73;;
25419;SDS011;13354;48.174;11.566;2022-12-07T07:52:22;18.60;;;13.82;;
25419;SDS011;13354;48.174;11.566;2022-12-07T07:54:47;16.85;;;14.05;;
25419;SDS011;13354;48.174;11.566;2022-12-07T07:57:13;15.85;;;13.20;;
25419;SDS011;13354;48.174;11.566;2022-12-07T07:59:39;15.60;;;13.25;;
25419;SDS011;13354;48.174;11.566;2022-12-07T08:02:04;16.10;;;14.13;;
25419;SDS011;13354;48.174;11.566;2022-12-07T08:04:29;16.52;;;14.00;;
25419;SDS011;13354;48.174;11.566;2022-12-07T08:06:54;17.40;;;13.68;;
25419;SDS011;13354;48.174;11.566;2022-12-07T08:09:21;17.27;;;14.10;;
25419;SDS011;13354;48.174;11.566;2022-12-07T08:11:46;21.58;;;14.77;;
25419;SDS011;13354;48.174;11.566;2022-12-07T08:14:11;20.23;;;14.60;;
25419;SDS011;13354;48.174;11.566;2022-12-07T08:16:37;22.75;;;14.50;;
25419;SDS011;13354;48.174;11.566;2022-12-07T08:19:04;16.55;;;13.57;;
25419;SDS011;13354;48.174;11.566;2022-12-07T08:21:30;18.67;;;14.60;;
25419;SDS011;13354;48.174;11.566;2022-12-07T08:23:56;19.08;;;15.35;;
25419;SDS011;13354;48.174;11.566;2022-12-07T08:26:22;17.77;;;14.65;;
25419;SDS011;13354;48.174;11.566;2022-12-07T08:28:47;19.55;;;15.60;;
25419;SDS011;13354;48.174;11.566;2022-12-07T08:31:14;24.83;;;16.55;;
25419;SDS011;13354;48.174;11.566;2022-12-07T08:33:41;20.23;;;15.63;;
25419;SDS011;13354;48.174;11.566;2022-12-07T08:36:09;19.23;;;14.95;;
25419;SDS011;13354;48.174;11.566;2022-12-07T08:38:37;18.60;;;15.27;;
25419;SDS011;13354;48.174;11.566;2022-12-07T08:41:04;18.45;;;14.57;;
25419;SDS011;13354;48.174;11.566;2022-12-07T08:43:29;18.42;;;14.68;;
25419;SDS011;13354;48.174;11.566;2022-12-07T08:46:42;19.63;;;14.65;;
25419;SDS011;13354;48.174;11.566;2022-12-07T08:51:36;18.83;;;14.98;;
25419;SDS011;13354;48.174;11.566;2022-12-07T08:54:03;19.73;;;15.00;;
25419;SDS011;13354;48.174;11.566;2022-12-07T08:56:31;21.30;;;15.38;;
25419;SDS011;13354;48.174;11.566;2022-12-07T08:58:57;20.27;;;15.13;;
25419;SDS011;13354;48.174;11.566;2022-12-07T09:01:22;21.02;;;15.20;;
25419;SDS011;13354;48.174;11.566;2022-12-07T09:03:48;20.50;;;15.55;;
25419;SDS011;13354;48.174;11.566;2022-12-07T09:06:13;19.98;;;15.32;;
25419;SDS011;13354;48.174;11.566;2022-12-07T09:08:40;18.48;;;14.63;;
25419;SDS011;13354;48.174;11.566;2022-12-07T09:11:08;18.13;;;15.20;;
25419;SDS011;13354;48.174;11.566;2022-12-07T09:13:34;18.05;;;14.63;;
25419;SDS011;13354;48.174;11.566;2022-12-07T09:15:59;18.50;;;15.02;;
25419;SDS011;13354;48.174;11.566;2022-12-07T09:18:24;17.40;;;13.73;;
25419;SDS011;13354;48.174;11.566;2022-12-07T09:20:50;17.00;;;13.27;;
25419;SDS011;13354;48.174;11.566;2022-12-07T09:23:16;17.52;;;13.23;;
25419;SDS011;13354;48.174;11.566;2022-12-07T09:25:41;17.75;;;13.70;;
25419;SDS011;13354;48.174;11.566;2022-12-07T09:28:06;15.77;;;12.38;;
25419;SDS011;13354;48.174;11.566;2022-12-07T09:30:32;15.60;;;12.00;;
25419;SDS011;13354;48.174;11.566;2022-12-07T09:32:57;16.30;;;11.65;;
25419;SDS011;13354;48.174;11.566;2022-12-07T09:35:25;15.85;;;11.82;;
25419;SDS011;13354;48.174;11.566;2022-12-07T09:37:50;15.38;;;12.35;;
25419;SDS011;13354;48.174;11.566;2022-12-07T09:40:16;14.38;;;11.43;;
25419;SDS011;13354;48.174;11.566;2022-12-07T09:42:45;15.35;;;12.55;;
25419;SDS011;13354;48.174;11.566;2022-12-07T09:45:18;20.30;;;11.48;;
25419;SDS011;13354;48.174;11.566;2022-12-07T09:47:47;12.40;;;9.77;;
25419;SDS011;13354;48.174;11.566;2022-12-07T09:50:13;15.10;;;11.90;;
25419;SDS011;13354;48.174;11.566;2022-12-07T09:52:45;15.90;;;12.80;;
25419;SDS011;13354;48.174;11.566;2022-12-07T09:55:13;16.15;;;11.20;;
25419;SDS011;13354;48.174;11.566;2022-12-07T09:57:40;15.05;;;11.80;;
25419;SDS011;13354;48.174;11.566;2022-12-07T10:00:10;16.60;;;11.55;;
25419;SDS011;13354;48.174;11.566;2022-12-07T10:02:40;14.05;;;11.00;;
25419;SDS011;13354;48.174;11.566;2022-12-07T10:05:10;14.90;;;11.38;;
25419;SDS011;13354;48.174;11.566;2022-12-07T10:07:39;17.05;;;11.63;;
25419;SDS011;13354;48.174;11.566;2022-12-07T10:10:15;15.75;;;11.50;;
25419;SDS011;13354;48.174;11.566;2022-12-07T10:12:57;12.20;;;10.07;;
25419;SDS011;13354;48.174;11.566;2022-12-07T10:18:20;14.75;;;11.57;;
25419;SDS011;13354;48.174;11.566;2022-12-07T10:23:24;14.80;;;11.25;;
25419;SDS011;13354;48.174;11.566;2022-12-07T10:25:49;16.10;;;11.98;;
25419;SDS011;13354;48.174;11.566;2022-12-07T10:28:19;14.63;;;11.70;;
25419;SDS011;13354;48.174;11.566;2022-12-07T10:30:58;18.20;;;12.35;;
25419;SDS011;13354;48.174;11.566;2022-12-07T10:36:01;16.00;;;11.40;;
25419;SDS011;13354;48.174;11.566;2022-12-07T10:38:50;13.57;;;10.80;;
25419;SDS011;13354;48.174;11.566;2022-12-07T10:41:17;12.32;;;10.00;;
25419;SDS011;13354;48.174;11.566;2022-12-07T10:43:47;12.60;;;10.75;;
25419;SDS011;13354;48.174;11.566;2022-12-07T10:52:00;12.32;;;9.55;;
25419;SDS011;13354;48.174;11.566;2022-12-07T10:55:01;14.32;;;8.43;;
25419;SDS011;13354;48.174;11.566;2022-12-07T11:00:22;9.57;;;7.60;;
25419;SDS011;13354;48.174;11.566;2022-12-07T11:03:06;11.57;;;8.23;;
25419;SDS011;13354;48.174;11.566;2022-12-07T11:08:20;9.23;;;7.18;;
25419;SDS011;13354;48.174;11.566;2022-12-07T11:11:00;7.85;;;6.28;;
25419;SDS011;13354;48.174;11.566;2022-12-07T11:13:52;8.77;;;6.38;;
25419;SDS011;13354;48.174;11.566;2022-12-07T11:16:21;8.13;;;6.50;;
25419;SDS011;13354;48.174;11.566;2022-12-07T11:24:30;9.00;;;6.25;;
25419;SDS011;13354;48.174;11.566;2022-12-07T11:32:53;10.35;;;6.30;;
25419;SDS011;13354;48.174;11.566;2022-12-07T11:38:08;13.27;;;6.80;;
25419;SDS011;13354;48.174;11.566;2022-12-07T11:40:39;7.88;;;6.15;;
25419;SDS011;13354;48.174;11.566;2022-12-07T11:43:12;9.48;;;6.32;;
25419;SDS011;13354;48.174;11.566;2022-12-07T11:45:43;9.95;;;7.13;;
25419;SDS011;13354;48.174;11.566;2022-12-07T11:48:15;13.35;;;6.80;;
25419;SDS011;13354;48.174;11.566;2022-12-07T11:50:48;8.05;;;6.30;;
25419;SDS011;13354;48.174;11.566;2022-12-07T11:53:29;8.60;;;6.40;;
25419;SDS011;13354;48.174;11.566;2022-12-07T11:56:12;8.65;;;6.38;;
25419;SDS011;13354;48.174;11.566;2022-12-07T12:06:35;8.35;;;6.68;;
25419;SDS011;13354;48.174;11.566;2022-12-07T12:09:15;8.95;;;6.75;;
25419;SDS011;13354;48.174;11.566;2022-12-07T12:23:15;8.73;;;6.43;;
25419;SDS011;13354;48.174;11.566;2022-12-07T12:25:45;7.93;;;5.03;;
25419;SDS011;13354;48.174;11.566;2022-12-07T12:28:22;7.75;;;6.32;;
25419;SDS011;13354;48.174;11.566;2022-12-07T12:31:29;11.32;;;6.90;;
25419;SDS011;13354;48.174;11.566;2022-12-07T12:34:00;10.00;;;7.28;;
25419;SDS011;13354;48.174;11.566;2022-12-07T12:36:42;9.55;;;6.85;;
25419;SDS011;13354;48.174;11.566;2022-12-07T12:39:14;10.73;;;7.65;;
25419;SDS011;13354;48.174;11.566;2022-12-07T12:46:55;13.60;;;7.57;;
25419;SDS011;13354;48.174;11.566;2022-12-07T12:51:50;10.02;;;7.35;;
25419;SDS011;13354;48.174;11.566;2022-12-07T12:57:10;9.90;;;7.32;;
25419;SDS011;13354;48.174;11.566;2022-12-07T13:23:31;9.50;;;7.95;;
25419;SDS011;13354;48.174;11.566;2022-12-07T13:26:09;8.05;;;5.82;;
25419;SDS011;13354;48.174;11.566;2022-12-07T13:34:03;9.30;;;7.07;;
25419;SDS011;13354;48.174;11.566;2022-12-07T13:36:36;9.60;;;8.15;;
25419;SDS011;13354;48.174;11.566;2022-12-07T13:39:25;10.50;;;7.10;;
25419;SDS011;13354;48.174;11.566;2022-12-07T13:41:51;10.85;;;6.95;;
25419;SDS011;13354;48.174;11.566;2022-12-07T13:44:22;7.88;;;6.32;;
25419;SDS011;13354;48.174;11.566;2022-12-07T13:49:18;10.18;;;7.68;;
25419;SDS011;13354;48.174;11.566;2022-12-07T13:51:47;9.38;;;7.15;;
25419;SDS011;13354;48.174;11.566;2022-12-07T13:54:13;10.65;;;7.30;;
25419;SDS011;13354;48.174;11.566;2022-12-07T13:56:39;10.98;;;8.20;;
25419;SDS011;13354;48.174;11.566;2022-12-07T13:59:09;10.00;;;8.07;;
25419;SDS011;13354;48.174;11.566;2022-12-07T14:01:38;10.27;;;7.43;;
25419;SDS011;13354;48.174;11.566;2022-12-07T14:04:27;11.55;;;7.72;;
25419;SDS011;13354;48.174;11.566;2022-12-07T14:06:59;9.05;;;6.88;;
25419;SDS011;13354;48.174;11.566;2022-12-07T14:09:27;11.90;;;8.10;;
25419;SDS011;13354;48.174;11.566;2022-12-07T14:11:54;9.73;;;8.18;;
25419;SDS011;13354;48.174;11.566;2022-12-07T14:14:39;11.35;;;8.43;;
25419;SDS011;13354;48.174;11.566;2022-12-07T14:17:15;9.55;;;7.50;;
25419;SDS011;13354;48.174;11.566;2022-12-07T14:19:44;10.90;;;8.27;;
25419;SDS011;13354;48.174;11.566;2022-12-07T14:22:20;10.18;;;7.95;;
25419;SDS011;13354;48.174;11.566;2022-12-07T14:24:46;10.10;;;6.53;;
25419;SDS011;13354;48.174;11.566;2022-12-07T14:27:19;11.18;;;9.07;;
25419;SDS011;13354;48.174;11.566;2022-12-07T14:29:47;11.20;;;8.60;;
25419;SDS011;13354;48.174;11.566;2022-12-07T14:32:18;12.77;;;8.18;;
25419;SDS011;13354;48.174;11.566;2022-12-07T14:34:55;11.03;;;7.70;;
25419;SDS011;13354;48.174;11.566;2022-12-07T14:37:21;11.73;;;8.02;;
25419;SDS011;13354;48.174;11.566;2022-12-07T14:39:46;9.52;;;7.85;;
25419;SDS011;13354;48.174;11.566;2022-12-07T14:42:11;13.23;;;7.68;;
25419;SDS011;13354;48.174;11.566;2022-12-07T14:44:37;10.38;;;7.50;;
25419;SDS011;13354;48.174;11.566;2022-12-07T14:47:02;9.95;;;7.63;;
25419;SDS011;13354;48.174;11.566;2022-12-07T14:49:27;10.63;;;7.63;;
25419;SDS011;13354;48.174;11.566;2022-12-07T14:51:53;11.30;;;7.47;;
25419;SDS011;13354;48.174;11.566;2022-12-07T14:54:19;10.30;;;7.63;;
25419;SDS011;13354;48.174;11.566;2022-12-07T14:56:45;11.80;;;7.70;;
25419;SDS011;13354;48.174;11.566;2022-12-07T14:59:14;11.05;;;7.13;;
25419;SDS011;13354;48.174;11.566;2022-12-07T15:01:41;8.35;;;6.50;;
25419;SDS011;13354;48.174;11.566;2022-12-07T15:04:06;9.80;;;6.72;;
25419;SDS011;13354;48.174;11.566;2022-12-07T15:06:32;11.00;;;6.40;;
25419;SDS011;13354;48.174;11.566;2022-12-07T15:08:57;10.95;;;6.72;;
25419;SDS011;13354;48.174;11.566;2022-12-07T15:11:23;9.38;;;6.20;;
25419;SDS011;13354;48.174;11.566;2022-12-07T15:13:48;7.93;;;5.38;;
25419;SDS011;13354;48.174;11.566;2022-12-07T15:16:32;9.27;;;4.80;;
25419;SDS011;13354;48.174;11.566;2022-12-07T15:18:57;8.75;;;6.45;;
25419;SDS011;13354;48.174;11.566;2022-12-07T15:21:23;11.07;;;7.63;;
25419;SDS011;13354;48.174;11.566;2022-12-07T15:23:48;11.98;;;7.82;;
25419;SDS011;13354;48.174;11.566;2022-12-07T15:26:14;12.20;;;8.23;;
25419;SDS011;13354;48.174;11.566;2022-12-07T15:28:39;12.68;;;8.50;;
25419;SDS011;13354;48.174;11.566;2022-12-07T15:31:11;12.30;;;8.40;;
25419;SDS011;13354;48.174;11.566;2022-12-07T15:33:37;14.13;;;9.50;;
25419;SDS011;13354;48.174;11.566;2022-12-07T15:36:02;12.15;;;8.90;;
25419;SDS011;13354;48.174;11.566;2022-12-07T15:38:27;14.35;;;9.90;;
25419;SDS011;13354;48.174;11.566;2022-12-07T15:40:55;11.68;;;9.55;;
25419;SDS011;13354;48.174;11.566;2022-12-07T15:43:20;15.43;;;9.18;;
25419;SDS011;13354;48.174;11.566;2022-12-07T15:46:04;13.65;;;9.38;;
25419;SDS011;13354;48.174;11.566;2022-12-07T15:48:29;16.88;;;9.60;;
25419;SDS011;13354;48.174;11.566;2022-12-07T15:51:02;12.82;;;9.52;;
25419;SDS011;13354;48.174;11.566;2022-12-07T15:53:28;14.13;;;10.37;;
25419;SDS011;13354;48.174;11.566;2022-12-07T15:55:53;14.85;;;9.63;;
25419;SDS011;13354;48.174;11.566;2022-12-07T15:58:18;13.52;;;9.68;;
25419;SDS011;13354;48.174;11.566;2022-12-07T16:00:44;13.02;;;9.48;;
25419;SDS011;13354;48.174;11.566;2022-12-07T16:03:09;15.48;;;9.38;;
25419;SDS011;13354;48.174;11.566;2022-12-07T16:05:34;12.80;;;10.40;;
25419;SDS011;13354;48.174;11.566;2022-12-07T16:07:59;13.52;;;10.25;;
25419;SDS011;13354;48.174;11.566;2022-12-07T16:10:25;13.32;;;10.07;;
25419;SDS011;13354;48.174;11.566;2022-12-07T16:12:50;12.68;;;9.40;;
25419;SDS011;13354;48.174;11.566;2022-12-07T16:15:15;11.82;;;9.23;;
25419;SDS011;13354;48.174;11.566;2022-12-07T16:17:41;14.75;;;9.40;;
25419;SDS011;13354;48.174;11.566;2022-12-07T16:20:06;12.68;;;9.32;;
25419;SDS011;13354;48.174;11.566;2022-12-07T16:22:33;11.57;;;9.02;;
25419;SDS011;13354;48.174;11.566;2022-12-07T16:24:58;13.57;;;9.07;;
25419;SDS011;13354;48.174;11.566;2022-12-07T16:27:23;13.50;;;9.48;;